Saint Brieux, Canada
Current Conditions -  °F | °C
As of 6:00 PM on Monday 22 Dec 2014 (Local Time) from CYPA Reporting Station
Light Snow Light Snow  
Wind Chill: 17°   Ceiling: 600
Heat Index: 23°   Visibility: 12mi
Dew Point: 21°   Wind: 5mph
Humidity: 93%   Direction: 290°WNW
Pressure: 29.93"   Gusts: NA
Location:  52.63°N, 104.88°W
Report Text: CYPA 230000Z 29004KT 12SM -SN OVC006 M05/M06 A2993 RMK ST8 SLP163
Loading
Personal Weather Stations






























Interactive Weather Map New forecast layout! Learn more

10-Day Weather Forecast

Advertisements
Track Severe Weather on mobile